createdAt,value
2018-03-22T00:00:28.814Z,8.97
2018-03-22T00:02:56.292Z,9.70
2018-03-22T00:05:23.766Z,10.20
2018-03-22T00:07:51.299Z,9.57
2018-03-22T00:10:18.831Z,10.60
2018-03-22T00:12:46.350Z,10.17
2018-03-22T00:15:13.851Z,10.47
2018-03-22T00:17:41.315Z,12.10
2018-03-22T00:20:08.812Z,8.87
2018-03-22T00:22:39.320Z,10.20
2018-03-22T00:25:06.818Z,11.23
2018-03-22T00:27:34.271Z,7.97
2018-03-22T00:30:01.786Z,11.47
2018-03-22T00:32:29.283Z,10.23
2018-03-22T00:34:56.752Z,12.30
2018-03-22T00:37:24.291Z,10.87
2018-03-22T00:39:51.765Z,12.33
2018-03-22T00:42:19.232Z,14.13
2018-03-22T00:44:46.700Z,13.77
2018-03-22T00:47:14.180Z,13.17
2018-03-22T00:49:41.651Z,11.17
2018-03-22T00:52:09.116Z,12.30
2018-03-22T00:54:36.605Z,14.37
2018-03-22T00:57:04.151Z,11.47
2018-03-22T00:59:31.723Z,11.57
2018-03-22T01:01:59.273Z,11.70
2018-03-22T01:04:26.832Z,13.17
2018-03-22T01:06:54.295Z,12.10
2018-03-22T01:09:21.789Z,11.43
2018-03-22T01:11:49.311Z,11.87
2018-03-22T01:14:16.861Z,12.77
2018-03-22T01:16:44.341Z,12.77
2018-03-22T01:19:11.794Z,11.23
2018-03-22T01:21:39.279Z,11.23
2018-03-22T01:24:06.746Z,11.07
2018-03-22T01:26:34.201Z,10.97
2018-03-22T01:29:01.704Z,11.37
2018-03-22T01:31:29.468Z,12.70
2018-03-22T01:33:57.018Z,12.77
2018-03-22T01:36:24.494Z,11.30
2018-03-22T01:38:51.970Z,11.30
2018-03-22T01:41:19.425Z,11.73
2018-03-22T01:43:46.910Z,13.17
2018-03-22T01:46:14.400Z,12.27
2018-03-22T01:48:41.864Z,12.60
2018-03-22T01:51:09.337Z,11.30
2018-03-22T01:53:36.829Z,12.93
2018-03-22T01:56:04.290Z,12.77
2018-03-22T01:58:31.799Z,11.93
2018-03-22T02:00:59.263Z,12.27
2018-03-22T02:03:26.737Z,12.07
2018-03-22T02:05:54.222Z,12.87
2018-03-22T02:08:21.685Z,13.13
2018-03-22T02:10:49.160Z,12.67
2018-03-22T02:13:16.634Z,12.30
2018-03-22T02:15:44.119Z,10.60
2018-03-22T02:18:11.661Z,11.00
2018-03-22T02:20:39.117Z,12.60
2018-03-22T02:23:06.585Z,12.33
2018-03-22T02:25:34.049Z,11.67
2018-03-22T02:28:01.542Z,11.93
2018-03-22T02:30:28.999Z,12.47
2018-03-22T02:32:56.595Z,13.33
2018-03-22T02:35:24.073Z,12.83
2018-03-22T02:37:51.639Z,11.50
2018-03-22T02:40:19.105Z,11.90
2018-03-22T02:42:46.695Z,12.40
2018-03-22T02:45:14.155Z,10.93
2018-03-22T02:47:41.614Z,12.00
2018-03-22T02:50:09.119Z,12.37
2018-03-22T02:52:37.294Z,10.80
2018-03-22T02:55:04.854Z,12.80
2018-03-22T02:57:32.430Z,11.87
2018-03-22T02:59:59.893Z,12.83
2018-03-22T03:02:27.431Z,12.63
2018-03-22T03:04:54.932Z,14.03
2018-03-22T03:07:22.394Z,11.87
2018-03-22T03:09:49.854Z,12.53
2018-03-22T03:12:17.362Z,14.03
2018-03-22T03:14:44.838Z,13.07
2018-03-22T03:17:12.327Z,13.07
2018-03-22T03:19:39.814Z,12.80
2018-03-22T03:22:07.267Z,13.30
2018-03-22T03:24:34.837Z,13.03
2018-03-22T03:27:02.308Z,11.67
2018-03-22T03:29:29.868Z,14.97
2018-03-22T03:31:57.341Z,12.80
2018-03-22T03:34:24.888Z,12.27
2018-03-22T03:36:52.362Z,14.63
2018-03-22T03:39:19.905Z,11.30
2018-03-22T03:41:47.402Z,12.47
2018-03-22T03:44:14.913Z,13.67
2018-03-22T03:46:42.486Z,12.37
2018-03-22T03:49:10.046Z,11.83
2018-03-22T03:51:37.522Z,15.27
2018-03-22T03:54:04.984Z,15.23
2018-03-22T03:56:32.502Z,13.10
2018-03-22T03:58:59.973Z,15.23
2018-03-22T04:01:27.431Z,13.47
2018-03-22T04:03:54.918Z,14.27
2018-03-22T04:06:22.390Z,15.33
2018-03-22T04:08:49.936Z,12.93
2018-03-22T04:11:17.417Z,14.90
2018-03-22T04:13:44.871Z,14.93
2018-03-22T04:16:12.346Z,13.60
2018-03-22T04:18:39.871Z,15.67
2018-03-22T04:21:07.343Z,15.30
2018-03-22T04:23:34.802Z,14.37
2018-03-22T04:26:02.265Z,14.40
2018-03-22T04:28:29.784Z,14.80
2018-03-22T04:30:57.258Z,15.17
2018-03-22T04:33:24.735Z,14.23
2018-03-22T04:35:52.211Z,13.50
2018-03-22T04:38:19.661Z,14.73
2018-03-22T04:40:47.139Z,11.47
2018-03-22T04:43:14.700Z,14.10
2018-03-22T04:45:42.159Z,14.20
2018-03-22T04:48:09.709Z,13.50
2018-03-22T04:50:37.178Z,14.10
2018-03-22T04:53:04.753Z,12.90
2018-03-22T04:55:32.291Z,13.40
2018-03-22T04:57:59.820Z,13.63
2018-03-22T05:00:27.306Z,12.77
2018-03-22T05:02:54.766Z,14.80
2018-03-22T05:05:22.250Z,14.33
2018-03-22T05:07:49.766Z,15.70
2018-03-22T05:10:17.234Z,15.73
2018-03-22T05:12:44.735Z,15.90
2018-03-22T05:15:12.300Z,15.67
2018-03-22T05:17:39.797Z,16.50
2018-03-22T05:20:07.307Z,15.37
2018-03-22T05:22:34.864Z,14.47
2018-03-22T05:25:02.444Z,16.10
2018-03-22T05:27:29.964Z,15.27
2018-03-22T05:29:57.418Z,16.97
2018-03-22T05:32:24.897Z,16.80
2018-03-22T05:34:52.385Z,17.37
2018-03-22T05:37:19.848Z,15.87
2018-03-22T05:39:47.323Z,21.30
2018-03-22T05:42:14.911Z,17.20
2018-03-22T05:44:42.469Z,16.50
2018-03-22T05:47:09.960Z,17.80
2018-03-22T05:49:37.431Z,16.20
2018-03-22T05:52:04.891Z,17.67
2018-03-22T05:54:32.484Z,16.63
2018-03-22T05:56:59.948Z,18.07
2018-03-22T05:59:27.501Z,17.37
2018-03-22T06:01:54.962Z,19.30
2018-03-22T06:04:22.427Z,18.53
2018-03-22T06:06:49.919Z,21.50
2018-03-22T06:09:17.387Z,18.90
2018-03-22T06:11:44.942Z,17.37
2018-03-22T06:14:12.434Z,17.90
2018-03-22T06:16:39.963Z,18.83
2018-03-22T06:19:07.414Z,21.37
2018-03-22T06:21:34.894Z,16.50
2018-03-22T06:24:02.356Z,17.07
2018-03-22T06:26:29.838Z,16.50
2018-03-22T06:28:57.333Z,16.13
2018-03-22T06:31:24.803Z,18.10
2018-03-22T06:33:52.314Z,15.53
2018-03-22T06:36:19.791Z,17.07
2018-03-22T06:38:47.246Z,15.20
2018-03-22T06:41:14.725Z,15.90
2018-03-22T06:43:42.182Z,19.93
2018-03-22T06:46:09.652Z,21.10
2018-03-22T06:48:37.136Z,18.20
2018-03-22T06:51:04.626Z,18.37
2018-03-22T06:53:32.198Z,18.93
2018-03-22T06:55:59.745Z,18.00
2018-03-22T06:58:27.240Z,11.47
2018-03-22T07:00:54.755Z,17.87
2018-03-22T07:03:22.239Z,16.57
2018-03-22T07:05:49.698Z,17.07
2018-03-22T07:08:17.175Z,19.07
2018-03-22T07:10:44.690Z,16.60
2018-03-22T07:13:12.254Z,21.60
2018-03-22T07:15:39.717Z,16.00
2018-03-22T07:18:07.239Z,18.93
2018-03-22T07:20:34.725Z,19.73
2018-03-22T07:23:02.188Z,17.93
2018-03-22T07:25:29.757Z,19.67
2018-03-22T07:27:57.251Z,18.07
2018-03-22T07:30:24.759Z,17.53
2018-03-22T07:32:52.237Z,19.07
2018-03-22T07:35:19.774Z,17.60
2018-03-22T07:37:47.257Z,19.73
2018-03-22T07:40:14.715Z,18.20
2018-03-22T07:42:42.203Z,17.20
2018-03-22T07:45:09.686Z,18.80
2018-03-22T07:47:37.153Z,18.63
2018-03-22T07:50:04.626Z,14.00
2018-03-22T07:52:32.092Z,19.43
2018-03-22T07:54:59.572Z,19.87
2018-03-22T07:57:27.051Z,18.57
2018-03-22T07:59:54.540Z,19.43
2018-03-22T08:02:21.990Z,18.17
2018-03-22T08:04:49.485Z,15.40
2018-03-22T08:07:16.978Z,17.13
2018-03-22T08:09:44.453Z,9.70
2018-03-22T08:12:11.928Z,15.07
2018-03-22T08:14:39.414Z,14.20
2018-03-22T08:17:06.871Z,15.13
2018-03-22T08:19:34.434Z,13.07
2018-03-22T08:22:01.991Z,13.83
2018-03-22T08:24:29.448Z,16.40
2018-03-22T08:26:56.906Z,20.13
2018-03-22T08:29:24.464Z,17.10
2018-03-22T08:31:51.917Z,16.10
2018-03-22T08:34:19.382Z,15.77
2018-03-22T08:36:46.885Z,15.60
2018-03-22T08:39:14.340Z,16.53
2018-03-22T08:41:41.807Z,16.20
2018-03-22T08:44:09.290Z,14.60
2018-03-22T08:46:36.806Z,17.60
2018-03-22T08:49:04.307Z,15.30
2018-03-22T08:51:31.875Z,16.33
2018-03-22T08:53:59.342Z,17.07
2018-03-22T08:56:26.894Z,18.77
2018-03-22T08:58:54.357Z,16.80
2018-03-22T09:01:21.820Z,17.47
2018-03-22T09:03:49.318Z,19.80
2018-03-22T09:06:16.778Z,19.17
2018-03-22T09:08:44.235Z,19.97
2018-03-22T09:11:11.737Z,21.40
2018-03-22T09:13:39.202Z,20.77
2018-03-22T09:16:06.669Z,23.90
2018-03-22T09:18:34.160Z,24.60
2018-03-22T09:21:01.630Z,19.87
2018-03-22T09:23:29.105Z,20.10
2018-03-22T09:25:56.593Z,21.50
2018-03-22T09:28:24.192Z,21.50
2018-03-22T09:30:51.717Z,21.27
2018-03-22T09:33:19.190Z,21.80
2018-03-22T09:35:46.646Z,22.37
2018-03-22T09:38:14.150Z,26.23
2018-03-22T09:40:41.642Z,24.90
2018-03-22T09:43:09.108Z,22.40
2018-03-22T09:45:36.610Z,21.50
2018-03-22T09:48:04.178Z,22.03
2018-03-22T09:50:31.686Z,23.77
2018-03-22T09:52:59.191Z,26.50
2018-03-22T09:55:26.657Z,27.17
2018-03-22T09:57:54.134Z,26.13
2018-03-22T10:00:21.626Z,26.23
2018-03-22T10:02:49.130Z,27.93
2018-03-22T10:05:16.567Z,27.83
2018-03-22T10:07:44.042Z,26.17
2018-03-22T10:10:11.506Z,26.87
2018-03-22T10:12:38.979Z,25.20
2018-03-22T10:15:06.471Z,25.57
2018-03-22T10:17:33.943Z,26.03
2018-03-22T10:20:01.414Z,31.60
2018-03-22T10:22:28.902Z,28.20
2018-03-22T10:24:56.361Z,28.80
2018-03-22T10:27:23.879Z,27.20
2018-03-22T10:29:51.358Z,29.03
2018-03-22T10:32:18.818Z,29.53
2018-03-22T10:34:46.284Z,28.47
2018-03-22T10:37:13.912Z,28.10
2018-03-22T10:39:41.375Z,29.90
2018-03-22T10:42:08.880Z,29.57
2018-03-22T10:44:36.450Z,24.87
2018-03-22T10:47:03.922Z,27.70
2018-03-22T10:49:31.382Z,26.90
2018-03-22T10:51:58.856Z,31.23
2018-03-22T10:54:26.331Z,27.63
2018-03-22T10:56:53.805Z,34.00
2018-03-22T10:59:21.284Z,30.70
2018-03-22T11:01:54.404Z,29.10
2018-03-22T11:04:21.941Z,33.30
2018-03-22T11:06:49.424Z,32.20
2018-03-22T11:09:16.895Z,28.30
2018-03-22T11:11:44.407Z,31.37
2018-03-22T11:14:12.016Z,33.40
2018-03-22T11:16:39.473Z,30.87
2018-03-22T11:19:06.958Z,32.77
2018-03-22T11:21:34.425Z,32.20
2018-03-22T11:24:01.882Z,33.03
2018-03-22T11:26:29.355Z,35.23
2018-03-22T11:28:56.819Z,36.43
2018-03-22T11:31:24.290Z,37.23
2018-03-22T11:33:51.782Z,33.83
2018-03-22T11:36:19.305Z,34.43
2018-03-22T11:38:46.763Z,39.17
2018-03-22T11:41:14.278Z,31.53
2018-03-22T11:43:41.767Z,27.10
2018-03-22T11:46:09.361Z,34.63
2018-03-22T11:48:36.985Z,22.13
2018-03-22T11:51:04.545Z,33.93
2018-03-22T11:53:32.026Z,35.27
2018-03-22T11:55:59.526Z,39.20
2018-03-22T11:58:26.984Z,36.37
2018-03-22T12:00:54.447Z,34.37
2018-03-22T12:03:21.938Z,32.63
2018-03-22T12:05:49.405Z,35.53
2018-03-22T12:08:16.896Z,39.77
2018-03-22T12:10:44.398Z,37.80
2018-03-22T12:13:11.866Z,37.77
2018-03-22T12:15:39.326Z,40.00
2018-03-22T12:18:06.815Z,33.67
2018-03-22T12:20:34.285Z,37.43
2018-03-22T12:23:01.755Z,36.67
2018-03-22T12:25:29.305Z,30.60
2018-03-22T12:27:56.868Z,34.53
2018-03-22T12:30:24.337Z,33.67
2018-03-22T12:32:51.937Z,32.30
2018-03-22T12:35:19.393Z,33.20
2018-03-22T12:37:46.850Z,34.50
2018-03-22T12:40:14.382Z,30.07
2018-03-22T12:42:41.917Z,27.20
2018-03-22T12:45:09.407Z,31.37
2018-03-22T12:47:36.916Z,32.07
2018-03-22T12:50:04.402Z,33.97
2018-03-22T12:52:31.876Z,33.70
2018-03-22T12:54:59.368Z,34.40
2018-03-22T12:57:26.866Z,37.08
2018-03-22T12:59:54.338Z,35.90
2018-03-22T13:02:21.794Z,33.20
2018-03-22T13:04:49.278Z,27.90
2018-03-22T13:07:16.731Z,34.60
2018-03-22T13:09:44.210Z,34.20
2018-03-22T13:12:11.683Z,31.50
2018-03-22T13:14:39.147Z,31.50
2018-03-22T13:17:06.724Z,29.70
2018-03-22T13:19:34.190Z,32.77
2018-03-22T13:22:01.667Z,33.20
2018-03-22T13:24:29.196Z,31.33
2018-03-22T13:26:56.755Z,35.00
2018-03-22T13:29:24.223Z,31.90
2018-03-22T13:31:51.702Z,29.03
2018-03-22T13:34:19.185Z,30.77
2018-03-22T13:36:46.642Z,31.47
2018-03-22T13:39:14.149Z,29.20
2018-03-22T13:41:41.662Z,29.67
2018-03-22T13:44:09.137Z,27.70
2018-03-22T13:46:36.704Z,28.40
2018-03-22T13:49:04.240Z,30.33
2018-03-22T13:51:31.711Z,33.27
2018-03-22T13:53:59.225Z,29.10
2018-03-22T13:56:26.723Z,32.17
2018-03-22T13:58:54.178Z,30.53
2018-03-22T14:01:21.655Z,29.63
2018-03-22T14:03:49.118Z,31.03
2018-03-22T14:06:16.618Z,29.67
2018-03-22T14:08:44.081Z,30.00
2018-03-22T14:11:11.554Z,28.97
2018-03-22T14:13:39.124Z,29.27
2018-03-22T14:16:06.604Z,26.07
2018-03-22T14:18:34.121Z,27.50
2018-03-22T14:21:01.637Z,26.77
2018-03-22T14:23:29.136Z,26.77
2018-03-22T14:25:56.609Z,29.30
2018-03-22T14:28:24.095Z,29.87
2018-03-22T14:30:51.567Z,27.60
2018-03-22T14:33:19.055Z,26.03
2018-03-22T14:35:46.570Z,26.10
2018-03-22T14:38:14.026Z,26.37
2018-03-22T14:40:41.485Z,26.50
2018-03-22T14:43:08.979Z,25.50
2018-03-22T14:45:36.456Z,26.70
2018-03-22T14:48:03.935Z,26.10
2018-03-22T14:50:31.422Z,25.27
2018-03-22T14:52:58.911Z,26.77
2018-03-22T14:55:26.409Z,27.40
2018-03-22T14:57:53.864Z,28.40
2018-03-22T15:00:21.355Z,25.73
2018-03-22T15:02:48.822Z,23.67
2018-03-22T15:05:16.278Z,25.63
2018-03-22T15:07:43.767Z,23.60
2018-03-22T15:10:11.246Z,25.73
2018-03-22T15:12:38.718Z,24.77
2018-03-22T15:15:06.271Z,25.10
2018-03-22T15:17:33.741Z,25.80
2018-03-22T15:20:01.223Z,27.80
2018-03-22T15:22:28.794Z,25.03
2018-03-22T15:24:56.267Z,28.70
2018-03-22T15:27:23.735Z,24.57
2018-03-22T15:29:51.325Z,26.77
2018-03-22T15:32:18.823Z,30.10
2018-03-22T15:34:46.288Z,26.13
2018-03-22T15:37:13.796Z,28.27
2018-03-22T15:39:41.286Z,24.53
2018-03-22T15:42:08.742Z,27.83
2018-03-22T15:44:36.221Z,30.10
2018-03-22T15:47:03.711Z,28.63
2018-03-22T15:49:31.231Z,29.70
2018-03-22T15:51:58.743Z,25.37
2018-03-22T15:54:26.205Z,25.87
2018-03-22T15:56:53.677Z,28.83
2018-03-22T15:59:21.210Z,28.17
2018-03-22T16:01:48.728Z,24.23
2018-03-22T16:04:16.184Z,23.67
2018-03-22T16:06:43.683Z,27.23
2018-03-22T16:09:11.134Z,26.77
2018-03-22T16:11:38.595Z,27.13
2018-03-22T16:14:06.073Z,26.63
2018-03-22T16:16:33.552Z,30.00
2018-03-22T16:19:01.026Z,29.17
2018-03-22T16:21:28.514Z,30.40
2018-03-22T16:23:56.067Z,28.83
2018-03-22T16:26:23.533Z,31.13
2018-03-22T16:28:51.042Z,30.63
2018-03-22T16:31:18.508Z,30.70
2018-03-22T16:33:45.980Z,27.23
2018-03-22T16:36:13.454Z,27.10
2018-03-22T16:38:40.955Z,29.37
2018-03-22T16:41:08.446Z,30.53
2018-03-22T16:43:35.966Z,26.93
2018-03-22T16:46:03.540Z,28.03
2018-03-22T16:48:31.116Z,25.23
2018-03-22T16:50:58.698Z,29.23
2018-03-22T16:53:26.179Z,26.07
2018-03-22T16:55:53.706Z,31.13
2018-03-22T16:58:21.175Z,24.93
2018-03-22T17:00:48.686Z,25.90
2018-03-22T17:03:16.150Z,26.70
2018-03-22T17:05:43.622Z,25.97
2018-03-22T17:08:11.711Z,29.53
2018-03-22T17:10:39.191Z,26.60
2018-03-22T17:13:06.689Z,28.60
2018-03-22T17:15:34.244Z,25.20
2018-03-22T17:18:01.720Z,26.10
2018-03-22T17:20:29.175Z,27.70
2018-03-22T17:22:56.810Z,27.60
2018-03-22T17:25:24.296Z,26.97
2018-03-22T17:27:51.790Z,26.90
2018-03-22T17:30:19.298Z,27.07
2018-03-22T17:32:46.756Z,27.60
2018-03-22T17:35:14.309Z,25.07
2018-03-22T17:37:41.879Z,29.33
2018-03-22T17:40:09.445Z,30.67
2018-03-22T17:42:37.541Z,27.43
2018-03-22T17:45:05.028Z,26.30
2018-03-22T17:47:32.561Z,28.83
2018-03-22T17:50:00.043Z,31.30
2018-03-22T17:52:27.642Z,30.27
2018-03-22T17:54:55.134Z,30.33
2018-03-22T17:57:22.596Z,28.63
2018-03-22T17:59:50.075Z,28.57
2018-03-22T18:02:17.671Z,27.87
2018-03-22T18:04:45.249Z,28.93
2018-03-22T18:07:12.801Z,31.53
2018-03-22T18:09:40.351Z,28.57
2018-03-22T18:12:07.829Z,27.47
2018-03-22T18:14:35.299Z,28.30
2018-03-22T18:17:02.822Z,29.70
2018-03-22T18:19:30.315Z,31.53
2018-03-22T18:21:57.787Z,29.80
2018-03-22T18:24:25.294Z,31.57
2018-03-22T18:26:52.755Z,34.83
2018-03-22T18:29:20.302Z,37.47
2018-03-22T18:31:47.778Z,33.57
2018-03-22T18:34:15.322Z,44.97
2018-03-22T18:36:42.947Z,33.40
2018-03-22T18:39:10.417Z,32.17
2018-03-22T18:41:37.910Z,30.13
2018-03-22T18:44:05.378Z,30.87
2018-03-22T18:46:32.855Z,34.07
2018-03-22T18:49:00.343Z,32.28
2018-03-22T18:51:27.807Z,34.70
2018-03-22T18:53:55.285Z,30.10
2018-03-22T18:56:22.785Z,31.93
2018-03-22T18:58:50.275Z,34.03
2018-03-22T19:01:17.745Z,33.70
2018-03-22T19:03:45.218Z,33.00
2018-03-22T19:06:12.709Z,32.93
2018-03-22T19:08:40.176Z,37.70
2018-03-22T19:11:07.664Z,32.00
2018-03-22T19:13:35.204Z,32.50
2018-03-22T19:16:02.754Z,33.30
2018-03-22T19:18:30.248Z,33.90
2018-03-22T19:20:57.820Z,34.40
2018-03-22T19:23:25.338Z,31.93
2018-03-22T19:25:52.896Z,34.53
2018-03-22T19:28:20.351Z,33.27
2018-03-22T19:30:47.853Z,32.90
2018-03-22T19:33:15.315Z,35.17
2018-03-22T19:35:42.847Z,33.90
2018-03-22T19:38:10.333Z,32.50
2018-03-22T19:40:37.899Z,34.83
2018-03-22T19:43:05.370Z,35.27
2018-03-22T19:45:32.886Z,36.83
2018-03-22T19:48:00.354Z,36.27
2018-03-22T19:50:27.846Z,33.77
2018-03-22T19:52:55.306Z,33.37
2018-03-22T19:55:22.842Z,34.70
2018-03-22T19:57:50.641Z,35.77
2018-03-22T20:00:18.158Z,37.87
2018-03-22T20:02:45.616Z,36.53
2018-03-22T20:05:13.091Z,35.77
2018-03-22T20:07:40.605Z,37.17
2018-03-22T20:10:08.175Z,38.97
2018-03-22T20:12:35.879Z,40.90
2018-03-22T20:15:03.362Z,40.87
2018-03-22T20:17:30.831Z,43.80
2018-03-22T20:19:58.399Z,37.77
2018-03-22T20:22:25.963Z,38.70
2018-03-22T20:24:53.454Z,39.70
2018-03-22T20:27:20.969Z,41.07
2018-03-22T20:29:48.426Z,37.10
2018-03-22T20:32:15.998Z,37.40
2018-03-22T20:34:43.475Z,36.27
2018-03-22T20:37:10.952Z,40.87
2018-03-22T20:39:38.468Z,43.87
2018-03-22T20:42:05.939Z,48.57
2018-03-22T20:44:33.423Z,40.93
2018-03-22T20:47:00.887Z,43.00
2018-03-22T20:49:28.349Z,43.97
2018-03-22T20:51:55.867Z,42.97
2018-03-22T20:54:23.419Z,47.53
2018-03-22T20:56:51.359Z,42.83
2018-03-22T20:59:18.826Z,37.37
2018-03-22T21:01:46.308Z,42.50
2018-03-22T21:04:13.851Z,40.28
2018-03-22T21:06:41.339Z,42.57
2018-03-22T21:09:08.927Z,45.95
2018-03-22T21:11:36.390Z,43.30
2018-03-22T21:14:03.859Z,38.50
2018-03-22T21:16:31.353Z,39.73
2018-03-22T21:18:58.814Z,38.67
2018-03-22T21:21:26.266Z,51.60
2018-03-22T21:23:53.786Z,66.73
2018-03-22T21:26:21.260Z,54.20
2018-03-22T21:28:48.714Z,48.37
2018-03-22T21:31:16.190Z,55.73
2018-03-22T21:33:43.781Z,46.30
2018-03-22T21:36:11.256Z,39.17
2018-03-22T21:38:38.783Z,37.37
2018-03-22T21:41:06.237Z,42.27
2018-03-22T21:43:33.695Z,42.23
2018-03-22T21:46:01.275Z,47.43
2018-03-22T21:48:28.747Z,40.87
2018-03-22T21:51:01.224Z,51.67
2018-03-22T21:53:28.718Z,42.17
2018-03-22T21:55:56.231Z,51.07
2018-03-22T21:58:23.754Z,43.40
2018-03-22T22:00:51.214Z,48.70
2018-03-22T22:03:18.678Z,35.20
2018-03-22T22:05:46.160Z,34.93
2018-03-22T22:08:13.632Z,39.23
2018-03-22T22:10:41.237Z,45.07
2018-03-22T22:13:08.711Z,36.77
2018-03-22T22:15:36.202Z,31.90
2018-03-22T22:18:03.671Z,38.03
2018-03-22T22:20:31.145Z,37.40
2018-03-22T22:22:58.646Z,35.43
2018-03-22T22:25:26.106Z,44.03
2018-03-22T22:27:53.567Z,37.47
2018-03-22T22:30:21.066Z,45.57
2018-03-22T22:32:49.454Z,51.83
2018-03-22T22:35:16.902Z,43.60
2018-03-22T22:37:44.378Z,41.93
2018-03-22T22:40:11.932Z,54.10
2018-03-22T22:42:39.433Z,54.30
2018-03-22T22:45:06.887Z,37.70
2018-03-22T22:47:34.403Z,43.97
2018-03-22T22:50:01.915Z,58.10
2018-03-22T22:52:29.368Z,36.13
2018-03-22T22:54:56.927Z,41.97
2018-03-22T22:57:24.402Z,46.67
2018-03-22T22:59:51.882Z,48.87
2018-03-22T23:02:19.331Z,48.50
2018-03-22T23:04:46.787Z,35.70
2018-03-22T23:07:14.266Z,35.67
2018-03-22T23:09:41.721Z,48.43
2018-03-22T23:12:09.286Z,46.60
2018-03-22T23:14:36.774Z,43.40
2018-03-22T23:17:04.308Z,47.80
2018-03-22T23:19:31.857Z,49.60
2018-03-22T23:21:59.433Z,41.10
2018-03-22T23:24:26.890Z,35.80
2018-03-22T23:26:54.364Z,41.37
2018-03-22T23:29:21.846Z,34.13
2018-03-22T23:31:49.318Z,41.50
2018-03-22T23:34:16.775Z,42.73
2018-03-22T23:36:44.260Z,40.43
2018-03-22T23:39:11.723Z,37.73
2018-03-22T23:41:39.230Z,38.40
2018-03-22T23:44:06.770Z,35.73
2018-03-22T23:46:34.247Z,23.80
2018-03-22T23:49:01.752Z,26.60
2018-03-22T23:51:29.224Z,24.57
2018-03-22T23:53:56.686Z,33.30
2018-03-22T23:56:24.162Z,27.37
2018-03-22T23:58:51.617Z,27.00
